Time;durP1;ratioP1;P1;durP2;ratioP2;P2;SDS_P1;SDS_P2;PMS_P1;PMS_P2;Temp;Humidity;BMP_temperature;BMP_pressure;BME280_temperature;BME280_humidity;BME280_pressure;Samples;Min_cycle;Max_cycle;Signal;HPM_P1;HPM_P2
2021/01/11 00:02:12;;;;;;;2.67;2.47;;;4.40;99.90;;;;;;4977849;28;20275;-75
2021/01/11 00:04:39;;;;;;;1.52;1.42;;;4.20;99.90;;;;;;4977400;28;20201;-74
2021/01/11 00:07:04;;;;;;;2.97;2.40;;;4.10;99.90;;;;;;4977406;28;20222;-74
2021/01/11 00:09:30;;;;;;;6.13;3.13;;;4.00;99.90;;;;;;4977641;28;20214;-76
2021/01/11 00:11:58;;;;;;;3.38;2.58;;;4.00;99.90;;;;;;4977415;28;20166;-75
2021/01/11 00:14:23;;;;;;;5.00;2.47;;;4.20;99.90;;;;;;4977371;28;20174;-74
2021/01/11 00:16:51;;;;;;;1.85;1.63;;;4.20;99.90;;;;;;4977233;28;20696;-75
2021/01/11 00:19:16;;;;;;;2.78;1.67;;;4.10;99.90;;;;;;4977343;28;20166;-74
2021/01/11 00:21:48;;;;;;;2.05;1.95;;;4.10;99.90;;;;;;4977147;28;20181;-74
2021/01/11 00:24:13;;;;;;;2.25;2.10;;;4.00;99.90;;;;;;4977125;28;20204;-75
2021/01/11 00:26:39;;;;;;;1.70;1.67;;;4.20;99.90;;;;;;4977132;28;20201;-74
2021/01/11 00:29:04;;;;;;;2.50;2.30;;;4.20;99.90;;;;;;4977030;28;20194;-75
2021/01/11 00:31:30;;;;;;;1.60;1.50;;;4.40;99.90;;;;;;4977024;28;20166;-77
2021/01/11 00:33:56;;;;;;;1.40;1.25;;;4.50;99.90;;;;;;4977021;28;20567;-75
2021/01/11 00:36:21;;;;;;;2.22;1.63;;;4.30;99.90;;;;;;4976861;28;20225;-75
2021/01/11 00:38:47;;;;;;;4.68;2.35;;;4.20;99.90;;;;;;4977225;28;20190;-77
2021/01/11 00:41:20;;;;;;;2.63;2.53;;;4.20;99.90;;;;;;4976901;28;20167;-74
2021/01/11 00:43:47;;;;;;;7.40;2.75;;;4.10;99.90;;;;;;4976860;28;20174;-75
2021/01/11 00:46:22;;;;;;;1.15;1.15;;;4.30;99.90;;;;;;4976707;28;20193;-75
2021/01/11 00:48:48;;;;;;;5.30;1.85;;;4.20;99.90;;;;;;4976710;28;20197;-74
2021/01/11 00:51:14;;;;;;;4.55;1.65;;;4.40;99.90;;;;;;4976697;28;20506;-77
2021/01/11 00:53:40;;;;;;;7.95;1.75;;;4.40;99.90;;;;;;4976551;28;20200;-76
2021/01/11 00:56:05;;;;;;;1.60;1.58;;;4.40;99.90;;;;;;4976578;28;20208;-75
2021/01/11 00:58:31;;;;;;;4.63;2.83;;;4.30;99.90;;;;;;4975198;28;20173;-74
2021/01/11 01:00:56;;;;;;;6.80;3.75;;;4.30;99.90;;;;;;4976540;28;20177;-75
2021/01/11 01:03:22;;;;;;;2.28;2.17;;;4.50;99.90;;;;;;4976262;28;20304;-75
2021/01/11 01:05:47;;;;;;;1.02;1.02;;;4.60;99.90;;;;;;4976292;28;20190;-74
2021/01/11 01:08:13;;;;;;;2.58;2.42;;;4.20;99.90;;;;;;4976123;28;20232;-75
2021/01/11 01:10:39;;;;;;;1.77;1.77;;;4.40;99.90;;;;;;4975355;28;20198;-75
2021/01/11 01:13:09;;;;;;;6.57;2.25;;;4.50;99.90;;;;;;4976217;28;20158;-74
2021/01/11 01:15:35;;;;;;;1.80;1.70;;;4.70;99.90;;;;;;4976217;28;20219;-75
2021/01/11 01:18:09;;;;;;;2.00;1.90;;;4.40;99.90;;;;;;4976046;28;20209;-75
2021/01/11 01:20:41;;;;;;;4.60;2.90;;;4.50;99.90;;;;;;4976114;28;20173;-75
2021/01/11 01:23:06;;;;;;;2.78;1.75;;;4.30;99.90;;;;;;4976108;28;20170;-75
2021/01/11 01:25:32;;;;;;;1.10;1.00;;;4.10;99.90;;;;;;4958647;28;20194;-74
2021/01/11 01:27:57;;;;;;;1.23;1.23;;;4.10;99.90;;;;;;4975959;28;20248;-74
2021/01/11 01:30:23;;;;;;;3.08;1.58;;;4.20;99.90;;;;;;4976041;28;20170;-74
2021/01/11 01:32:48;;;;;;;0.93;0.93;;;4.40;99.90;;;;;;4975914;28;20177;-74
2021/01/11 01:35:14;;;;;;;5.70;2.13;;;4.50;99.90;;;;;;4975843;28;20581;-75
2021/01/11 01:37:40;;;;;;;2.13;2.03;;;4.50;99.90;;;;;;4975849;28;20174;-75
2021/01/11 01:40:07;;;;;;;2.47;1.92;;;4.60;99.90;;;;;;4975805;28;20174;-75
2021/01/11 01:42:33;;;;;;;1.05;1.05;;;4.50;99.90;;;;;;4975720;28;20154;-75
2021/01/11 01:44:58;;;;;;;1.83;1.75;;;4.60;99.90;;;;;;4975677;28;20308;-75
2021/01/11 01:47:24;;;;;;;6.22;2.85;;;4.70;99.90;;;;;;4975631;28;20625;-75
2021/01/11 01:49:50;;;;;;;6.40;2.90;;;4.60;99.90;;;;;;4975694;28;20169;-76
2021/01/11 01:52:17;;;;;;;1.05;1.05;;;4.40;99.90;;;;;;4975683;28;20165;-74
2021/01/11 01:54:42;;;;;;;4.78;3.50;;;4.60;99.90;;;;;;4975414;28;20196;-75
2021/01/11 01:57:08;;;;;;;2.03;1.92;;;4.70;99.90;;;;;;4975486;28;20536;-75
2021/01/11 01:59:34;;;;;;;2.50;1.42;;;4.50;99.90;;;;;;4975425;28;20154;-74
2021/01/11 02:02:00;;;;;;;1.98;1.88;;;4.60;99.90;;;;;;4975272;28;20185;-75
2021/01/11 02:04:26;;;;;;;4.43;2.75;;;4.50;99.90;;;;;;4975373;28;20638;-75
2021/01/11 02:06:57;;;;;;;1.63;1.52;;;4.60;99.90;;;;;;4975087;28;20260;-75
2021/01/11 02:09:43;;;;;;;4.05;2.45;;;4.70;99.90;;;;;;4975167;28;20244;-75
2021/01/11 02:12:18;;;;;;;1.58;1.45;;;4.60;99.90;;;;;;4975203;28;20610;-75
2021/01/11 02:14:59;;;;;;;0.93;0.93;;;4.50;99.90;;;;;;4975103;28;20193;-74
2021/01/11 02:18:00;;;;;;;0.90;0.90;;;4.50;99.90;;;;;;4975178;28;20181;-75
2021/01/11 02:21:04;;;;;;;1.40;1.38;;;4.50;99.90;;;;;;4975194;28;20178;-74
2021/01/11 02:24:14;;;;;;;1.27;0.93;;;4.60;99.90;;;;;;4945371;28;20549;-74
2021/01/11 02:26:52;;;;;;;3.60;2.85;;;4.50;99.90;;;;;;4938639;28;20185;-75
2021/01/11 02:29:27;;;;;;;1.25;1.05;;;4.60;99.90;;;;;;4974865;28;20201;-75
2021/01/11 02:31:56;;;;;;;5.97;1.50;;;4.80;99.90;;;;;;4957433;28;20641;-74
2021/01/11 02:34:23;;;;;;;1.23;1.13;;;4.80;99.90;;;;;;4974766;28;20162;-74
2021/01/11 02:36:50;;;;;;;4.95;2.13;;;4.70;99.90;;;;;;4974802;28;20532;-74
2021/01/11 02:39:16;;;;;;;2.63;1.17;;;4.70;99.90;;;;;;4974776;28;20158;-74
2021/01/11 02:41:42;;;;;;;3.20;1.60;;;4.60;99.90;;;;;;4974666;28;20212;-75
2021/01/11 02:44:07;;;;;;;1.35;1.35;;;4.50;99.90;;;;;;4974665;28;20181;-75
2021/01/11 02:46:33;;;;;;;2.17;2.08;;;4.60;99.90;;;;;;4974658;28;20642;-75
2021/01/11 02:49:07;;;;;;;0.90;0.80;;;4.60;99.90;;;;;;4974484;28;20540;-75
2021/01/11 02:51:48;;;;;;;3.10;2.80;;;4.70;99.90;;;;;;4974483;28;20527;-75
2021/01/11 02:54:20;;;;;;;0.70;0.70;;;4.50;99.90;;;;;;4974312;28;20253;-75
2021/01/11 02:56:52;;;;;;;3.30;1.50;;;4.60;99.90;;;;;;4974656;28;20575;-75
2021/01/11 02:59:57;;;;;;;3.17;0.75;;;4.70;99.90;;;;;;4974487;28;20158;-74
2021/01/11 03:02:25;;;;;;;1.65;1.40;;;4.70;99.90;;;;;;4974438;28;20172;-76
2021/01/11 03:04:51;;;;;;;5.90;2.80;;;4.50;99.90;;;;;;4974298;28;20189;-74
2021/01/11 03:07:17;;;;;;;2.00;1.80;;;4.30;99.90;;;;;;4974256;28;20249;-76
2021/01/11 03:09:44;;;;;;;0.65;0.65;;;4.40;99.90;;;;;;4974197;28;20209;-76
2021/01/11 03:12:10;;;;;;;0.98;0.98;;;4.60;99.90;;;;;;4974628;28;20261;-75
2021/01/11 03:14:36;;;;;;;4.00;1.35;;;4.60;99.90;;;;;;4974209;28;20670;-76
2021/01/11 03:17:02;;;;;;;0.93;0.93;;;4.40;99.90;;;;;;4974264;28;20169;-74
2021/01/11 03:19:28;;;;;;;2.58;2.38;;;4.40;99.90;;;;;;4974301;28;20224;-74
2021/01/11 03:21:54;;;;;;;2.63;2.45;;;4.30;99.90;;;;;;4974231;28;20584;-74
2021/01/11 03:24:22;;;;;;;2.55;2.35;;;4.20;99.90;;;;;;4974190;28;20249;-75
2021/01/11 03:26:48;;;;;;;2.60;1.80;;;4.10;99.90;;;;;;4974127;28;20182;-76
2021/01/11 03:29:15;;;;;;;1.58;1.50;;;4.10;99.90;;;;;;4974435;28;20597;-74
2021/01/11 03:31:41;;;;;;;2.38;2.28;;;4.20;99.90;;;;;;5004669;23;20244;-74
2021/01/11 03:34:08;;;;;;;1.55;1.45;;;4.20;99.90;;;;;;4994320;28;20169;-75
2021/01/11 03:36:34;;;;;;;0.80;0.80;;;4.30;99.90;;;;;;4978098;28;20162;-74
2021/01/11 03:39:00;;;;;;;1.52;1.42;;;4.50;99.90;;;;;;4978009;28;20197;-75
2021/01/11 03:41:25;;;;;;;1.95;1.85;;;4.60;99.90;;;;;;4978002;28;20193;-74
2021/01/11 03:43:51;;;;;;;2.97;1.23;;;4.60;99.90;;;;;;4977938;28;20221;-75
2021/01/11 03:46:17;;;;;;;1.52;1.42;;;4.50;99.90;;;;;;4977849;28;20693;-75
2021/01/11 03:48:44;;;;;;;4.30;3.00;;;4.50;99.90;;;;;;4978098;28;20209;-75
2021/01/11 03:51:10;;;;;;;0.90;0.90;;;4.50;99.90;;;;;;4977734;28;20177;-76
2021/01/11 03:53:39;;;;;;;1.70;1.48;;;4.50;99.90;;;;;;4977890;28;20682;-76
2021/01/11 03:56:06;;;;;;;0.77;0.77;;;4.50;99.90;;;;;;4977610;28;20231;-77
2021/01/11 03:58:32;;;;;;;1.65;1.45;;;4.70;99.90;;;;;;4977776;28;20166;-77
2021/01/11 04:00:59;;;;;;;0.90;0.90;;;4.70;99.90;;;;;;4977617;28;20271;-76
2021/01/11 04:03:28;;;;;;;2.00;1.75;;;4.60;99.90;;;;;;4977821;28;20250;-77
2021/01/11 04:05:54;;;;;;;0.90;0.90;;;4.50;99.90;;;;;;4977510;28;20200;-77
2021/01/11 04:08:20;;;;;;;1.55;1.52;;;4.40;99.90;;;;;;4977464;28;20549;-77
2021/01/11 04:10:46;;;;;;;1.20;1.10;;;4.50;99.90;;;;;;4977245;28;20170;-76
2021/01/11 04:13:12;;;;;;;0.60;0.60;;;4.20;99.90;;;;;;4959916;28;20217;-76
2021/01/11 04:15:37;;;;;;;2.00;1.90;;;4.30;99.90;;;;;;4977281;28;20192;-76
2021/01/11 04:18:03;;;;;;;1.75;1.60;;;4.40;99.90;;;;;;4977250;28;20709;-77
2021/01/11 04:20:29;;;;;;;1.33;1.23;;;4.40;99.90;;;;;;4977254;28;20540;-76
2021/01/11 04:22:55;;;;;;;1.42;1.38;;;4.50;99.90;;;;;;4977330;28;20221;-77
2021/01/11 04:25:23;;;;;;;3.47;1.98;;;4.70;99.90;;;;;;4959794;28;20548;-77
2021/01/11 04:27:48;;;;;;;2.08;1.85;;;4.80;99.90;;;;;;4977013;28;20571;-75
2021/01/11 04:30:14;;;;;;;2.58;2.47;;;4.70;99.90;;;;;;4977066;28;20300;-75
2021/01/11 04:32:40;;;;;;;1.40;1.40;;;4.80;99.90;;;;;;4977016;28;20162;-77
2021/01/11 04:35:08;;;;;;;1.15;1.15;;;4.50;99.90;;;;;;4976859;28;20221;-75
2021/01/11 04:37:33;;;;;;;1.45;1.42;;;4.50;99.90;;;;;;4976939;28;20201;-76
2021/01/11 04:39:59;;;;;;;1.13;1.05;;;4.60;99.90;;;;;;4976868;28;20177;-76
2021/01/11 04:42:43;;;;;;;1.98;1.80;;;4.60;99.90;;;;;;4976908;28;20162;-75
2021/01/11 04:45:09;;;;;;;1.13;1.13;;;4.70;99.90;;;;;;4976550;28;20189;-76
2021/01/11 04:47:35;;;;;;;1.13;1.13;;;4.60;99.90;;;;;;4976709;28;20193;-75
2021/01/11 04:50:04;;;;;;;2.10;1.92;;;4.30;99.90;;;;;;4976593;28;20178;-75
2021/01/11 04:52:31;;;;;;;2.40;1.50;;;4.40;99.90;;;;;;4976602;28;20534;-74
2021/01/11 04:55:01;;;;;;;7.97;3.08;;;4.40;99.90;;;;;;4959058;28;20185;-75
2021/01/11 04:57:41;;;;;;;0.88;0.88;;;4.50;99.90;;;;;;4976455;28;20571;-74
2021/01/11 05:00:09;;;;;;;0.68;0.68;;;4.40;99.90;;;;;;4976608;28;20173;-75
2021/01/11 05:02:44;;;;;;;1.52;1.42;;;4.40;99.90;;;;;;4976674;28;20220;-75
2021/01/11 05:05:10;;;;;;;5.72;1.95;;;4.50;99.90;;;;;;4976358;28;20276;-75
2021/01/11 05:07:36;;;;;;;2.10;1.95;;;4.50;99.90;;;;;;4976173;28;20166;-75
2021/01/11 05:10:03;;;;;;;2.67;2.08;;;4.50;99.90;;;;;;4976301;28;20184;-75
2021/01/11 05:12:28;;;;;;;3.08;1.63;;;4.50;99.90;;;;;;4976216;28;20169;-76
2021/01/11 05:15:13;;;;;;;5.50;1.30;;;4.30;99.90;;;;;;4976016;28;20584;-75
2021/01/11 05:17:45;;;;;;;2.35;1.33;;;4.30;99.90;;;;;;4976130;28;20166;-76
2021/01/11 05:20:13;;;;;;;1.70;1.65;;;4.10;99.90;;;;;;4976148;28;20170;-75
2021/01/11 05:22:39;;;;;;;0.40;0.40;;;4.10;99.90;;;;;;4976011;28;20189;-75
2021/01/11 05:25:22;;;;;;;1.33;1.05;;;4.00;99.90;;;;;;4976012;28;20525;-76
2021/01/11 05:28:12;;;;;;;1.00;1.00;;;4.10;99.90;;;;;;4975809;28;20170;-74
2021/01/11 05:30:42;;;;;;;0.88;0.88;;;4.30;99.90;;;;;;4975769;28;20221;-74
2021/01/11 05:33:09;;;;;;;1.20;1.20;;;4.10;99.90;;;;;;4975848;28;20170;-74
2021/01/11 05:35:37;;;;;;;1.20;1.10;;;4.00;99.90;;;;;;4975948;28;20273;-74
2021/01/11 05:38:16;;;;;;;1.30;1.30;;;4.10;99.90;;;;;;4975700;28;20170;-74
2021/01/11 05:40:43;;;;;;;0.98;0.88;;;4.20;99.90;;;;;;4975824;28;20193;-74
2021/01/11 05:43:16;;;;;;;0.63;0.63;;;4.30;99.90;;;;;;4975429;28;20202;-75
2021/01/11 05:45:41;;;;;;;2.28;1.77;;;4.30;99.90;;;;;;4990578;28;20281;-74
2021/01/11 05:48:12;;;;;;;0.45;0.45;;;4.40;99.90;;;;;;4975540;28;20737;-74
2021/01/11 05:50:45;;;;;;;3.10;1.27;;;4.40;99.90;;;;;;4958062;28;20232;-74
2021/01/11 05:53:22;;;;;;;0.93;0.93;;;4.50;99.90;;;;;;4975367;28;20162;-74
2021/01/11 05:55:49;;;;;;;1.45;1.38;;;4.30;99.90;;;;;;4975401;28;20661;-74
2021/01/11 05:58:17;;;;;;;1.02;1.02;;;4.20;99.90;;;;;;4974776;28;20180;-74
2021/01/11 06:00:43;;;;;;;1.08;1.08;;;4.30;99.90;;;;;;4957829;28;20541;-74
2021/01/11 06:03:10;;;;;;;0.70;0.70;;;4.30;99.90;;;;;;4975447;28;20166;-74
2021/01/11 06:05:36;;;;;;;1.65;1.05;;;4.20;99.90;;;;;;4975131;28;20185;-75
2021/01/11 06:08:04;;;;;;;1.05;1.05;;;4.20;99.90;;;;;;4975155;28;20247;-74
2021/01/11 06:10:30;;;;;;;1.80;1.67;;;4.20;99.90;;;;;;4973893;28;20166;-75
2021/01/11 06:12:56;;;;;;;0.45;0.45;;;4.10;99.90;;;;;;4975079;28;20155;-75
2021/01/11 06:15:27;;;;;;;3.05;2.85;;;4.10;99.90;;;;;;4974957;28;20225;-74
2021/01/11 06:17:54;;;;;;;1.38;1.27;;;4.30;99.90;;;;;;4975060;28;20170;-74
2021/01/11 06:20:21;;;;;;;4.13;1.65;;;4.30;99.90;;;;;;4974825;28;20166;-75
2021/01/11 06:22:50;;;;;;;1.40;1.25;;;4.40;99.90;;;;;;4975006;28;20169;-74
2021/01/11 06:25:18;;;;;;;0.60;0.57;;;4.20;99.90;;;;;;4974867;28;20216;-75
2021/01/11 06:28:03;;;;;;;1.48;1.13;;;4.20;99.90;;;;;;4974525;28;20254;-74
2021/01/11 06:30:36;;;;;;;2.70;2.47;;;4.20;99.90;;;;;;4974819;28;20225;-74
2021/01/11 06:33:10;;;;;;;1.40;1.33;;;4.30;99.90;;;;;;4974670;28;20174;-75
2021/01/11 06:35:49;;;;;;;0.93;0.93;;;4.40;99.90;;;;;;4974523;28;20190;-75
2021/01/11 06:38:28;;;;;;;0.50;0.50;;;4.20;99.90;;;;;;4974459;28;20205;-74
2021/01/11 06:41:03;;;;;;;0.85;0.85;;;4.20;99.90;;;;;;4974407;28;20166;-75
2021/01/11 06:43:48;;;;;;;0.93;0.93;;;4.20;99.90;;;;;;4974255;28;20645;-74
2021/01/11 06:46:42;;;;;;;0.95;0.95;;;4.30;99.90;;;;;;4957073;28;20194;-75
2021/01/11 06:49:11;;;;;;;1.00;1.00;;;4.30;99.90;;;;;;4971499;28;20217;-74
2021/01/11 06:51:39;;;;;;;1.08;1.08;;;4.30;99.90;;;;;;4974015;28;20257;-75
2021/01/11 06:54:13;;;;;;;0.60;0.60;;;4.10;99.90;;;;;;4973969;28;20205;-78
2021/01/11 06:56:40;;;;;;;0.75;0.75;;;4.20;99.90;;;;;;4974055;28;20184;-75
2021/01/11 06:59:11;;;;;;;1.95;1.85;;;4.40;99.90;;;;;;4974331;28;20205;-75
2021/01/11 07:01:38;;;;;;;2.17;1.98;;;4.50;99.90;;;;;;4974005;28;20170;-72
2021/01/11 07:04:05;;;;;;;3.03;2.20;;;4.50;99.90;;;;;;4974043;28;20582;-75
2021/01/11 07:06:48;;;;;;;1.20;1.08;;;4.40;99.90;;;;;;4974017;28;20190;-76
2021/01/11 07:09:19;;;;;;;1.05;1.05;;;4.50;99.90;;;;;;4973350;28;20209;-77
2021/01/11 07:11:53;;;;;;;1.73;1.63;;;4.50;99.90;;;;;;4974242;28;20201;-75
2021/01/11 07:14:22;;;;;;;1.30;0.70;;;4.60;99.90;;;;;;4973820;28;20617;-76
2021/01/11 07:16:53;;;;;;;0.75;0.75;;;4.60;99.90;;;;;;4974156;28;20166;-75
2021/01/11 07:19:42;;;;;;;1.55;1.55;;;4.60;99.90;;;;;;4974090;28;20151;-77
2021/01/11 07:22:11;;;;;;;0.70;0.52;;;4.70;99.90;;;;;;4973836;28;20240;-76
2021/01/11 07:24:41;;;;;;;1.73;1.63;;;4.60;99.90;;;;;;4973773;28;20189;-76
2021/01/11 07:27:07;;;;;;;1.30;1.30;;;4.60;99.90;;;;;;4974415;28;20253;-75
2021/01/11 07:29:33;;;;;;;0.52;0.52;;;4.40;99.90;;;;;;4973831;28;20205;-75
2021/01/11 07:31:59;;;;;;;5.40;1.35;;;4.30;99.90;;;;;;4973285;28;20220;-76
2021/01/11 07:34:25;;;;;;;0.63;0.63;;;4.30;99.90;;;;;;4987072;28;20689;-77
2021/01/11 07:36:52;;;;;;;11.77;1.30;;;4.30;99.90;;;;;;4973550;28;20177;-77
2021/01/11 07:39:28;;;;;;;1.52;1.45;;;4.30;99.90;;;;;;4973774;28;20492;-75
2021/01/11 07:41:59;;;;;;;2.03;1.55;;;4.40;99.90;;;;;;4972202;28;20544;-76
2021/01/11 07:44:25;;;;;;;1.63;1.20;;;4.30;99.90;;;;;;4973490;28;20177;-78
2021/01/11 07:47:08;;;;;;;0.40;0.40;;;4.40;99.90;;;;;;4973300;28;20587;-76
2021/01/11 07:49:36;;;;;;;5.55;3.35;;;4.40;99.90;;;;;;4973494;28;20202;-77
2021/01/11 07:52:22;;;;;;;8.20;1.75;;;4.40;99.90;;;;;;4973507;28;20157;-77
2021/01/11 07:55:02;;;;;;;3.60;0.98;;;4.40;99.90;;;;;;4973648;28;20194;-76
2021/01/11 07:57:30;;;;;;;1.63;1.52;;;4.40;99.90;;;;;;4973714;28;20170;-76
2021/01/11 08:00:10;;;;;;;3.30;1.85;;;4.50;99.90;;;;;;4973863;28;20174;-77
2021/01/11 08:02:35;;;;;;;0.98;0.98;;;4.60;99.90;;;;;;4973730;28;20154;-77
2021/01/11 08:05:01;;;;;;;0.73;0.70;;;4.60;99.90;;;;;;4973737;28;20190;-77
2021/01/11 08:07:34;;;;;;;0.60;0.60;;;4.60;99.90;;;;;;4973909;28;20166;-84
2021/01/11 08:10:00;;;;;;;0.73;0.73;;;4.60;99.90;;;;;;4973251;28;20580;-82
2021/01/11 08:12:28;;;;;;;1.17;1.17;;;4.60;99.90;;;;;;4974946;28;20221;-84
2021/01/11 08:15:04;;;;;;;2.83;1.65;;;4.60;99.90;;;;;;4998666;28;20200;-84
2021/01/11 08:17:31;;;;;;;0.98;0.95;;;4.80;99.90;;;;;;4972764;28;20166;-80
2021/01/11 08:19:58;;;;;;;3.97;1.13;;;4.70;99.90;;;;;;4989438;28;20618;-82
2021/01/11 08:22:28;;;;;;;1.08;1.08;;;4.70;99.90;;;;;;4977782;28;20229;-84
2021/01/11 08:24:56;;;;;;;2.13;1.38;;;4.80;99.90;;;;;;4992003;28;20190;-81
2021/01/11 08:27:40;;;;;;;2.17;1.98;;;4.60;99.90;;;;;;4958457;28;20360;-82
2021/01/11 08:30:15;;;;;;;0.95;0.95;;;4.70;99.90;;;;;;4959077;28;20591;-80
2021/01/11 08:32:42;;;;;;;2.40;2.25;;;4.60;99.90;;;;;;4974347;28;20166;-81
2021/01/11 08:35:13;;;;;;;1.73;1.63;;;4.60;99.90;;;;;;4958710;28;20712;-83
2021/01/11 08:37:39;;;;;;;0.77;0.77;;;4.70;99.90;;;;;;4975274;28;20518;-78
2021/01/11 08:40:12;;;;;;;8.45;1.85;;;4.60;99.90;;;;;;4975653;28;20177;-78
2021/01/11 08:42:39;;;;;;;8.38;2.90;;;4.60;99.90;;;;;;4975286;28;20165;-77
2021/01/11 08:45:27;;;;;;;7.78;2.78;;;4.70;99.90;;;;;;4973318;28;20260;-77
2021/01/11 08:48:05;;;;;;;1.40;1.38;;;4.60;99.90;;;;;;4942899;28;20529;-80
2021/01/11 08:50:36;;;;;;;1.63;1.52;;;4.70;99.90;;;;;;4976178;28;20622;-79
2021/01/11 08:53:21;;;;;;;1.35;0.88;;;4.60;99.90;;;;;;4990517;28;20232;-79
2021/01/11 08:56:04;;;;;;;2.10;2.00;;;4.50;99.90;;;;;;4976017;28;20204;-80
2021/01/11 08:58:35;;;;;;;6.85;2.45;;;4.60;99.90;;;;;;4976192;28;20201;-80
2021/01/11 09:01:13;;;;;;;0.80;0.65;;;4.90;99.90;;;;;;4975686;28;20178;-81
2021/01/11 09:03:58;;;;;;;1.83;1.23;;;5.10;99.90;;;;;;4990642;28;20251;-80
2021/01/11 09:06:58;;;;;;;1.10;1.10;;;5.20;99.90;;;;;;4976103;28;20190;-78
2021/01/11 09:09:28;;;;;;;1.42;1.33;;;5.30;99.90;;;;;;4971881;28;20216;-79
2021/01/11 09:12:00;;;;;;;0.90;0.85;;;5.30;99.90;;;;;;4975050;28;20682;-78
2021/01/11 09:14:26;;;;;;;3.95;1.55;;;5.20;99.90;;;;;;4975300;28;20169;-79
2021/01/11 09:16:59;;;;;;;0.73;0.73;;;5.30;99.90;;;;;;4974862;28;20174;-78
2021/01/11 09:19:24;;;;;;;1.17;1.08;;;5.20;99.90;;;;;;4975644;28;20257;-78
2021/01/11 09:22:00;;;;;;;0.77;0.77;;;5.30;99.90;;;;;;4975148;28;20598;-76
2021/01/11 09:24:27;;;;;;;1.00;1.00;;;5.50;99.90;;;;;;4990591;28;20197;-78
2021/01/11 09:26:54;;;;;;;3.35;2.05;;;5.40;99.90;;;;;;4975266;28;20614;-77
2021/01/11 09:29:20;;;;;;;2.67;2.40;;;5.30;99.90;;;;;;4975386;28;20292;-76
2021/01/11 09:31:46;;;;;;;2.33;1.48;;;5.40;99.90;;;;;;4974258;28;20218;-75
2021/01/11 09:34:11;;;;;;;3.15;2.60;;;5.40;99.90;;;;;;4975266;28;20177;-76
2021/01/11 09:36:38;;;;;;;8.38;1.80;;;5.40;99.90;;;;;;4974020;28;20877;-79
2021/01/11 09:39:06;;;;;;;1.40;1.35;;;5.40;99.90;;;;;;4975213;28;20166;-78
2021/01/11 09:41:32;;;;;;;1.42;1.38;;;5.40;99.90;;;;;;4974805;28;20170;-82
2021/01/11 09:43:57;;;;;;;0.95;0.95;;;5.30;99.90;;;;;;4972414;28;20264;-79
2021/01/11 09:46:24;;;;;;;0.40;0.40;;;5.50;99.90;;;;;;4957738;28;20190;-79
2021/01/11 09:48:50;;;;;;;0.63;0.63;;;5.50;99.90;;;;;;4953431;29;20238;-84
2021/01/11 09:51:15;;;;;;;1.55;1.45;;;5.50;99.90;;;;;;4954393;29;20170;-86
2021/01/11 09:53:41;;;;;;;1.13;0.85;;;5.60;99.90;;;;;;4954134;29;20229;-76
2021/01/11 09:56:08;;;;;;;1.85;1.75;;;5.70;99.90;;;;;;4955312;29;20182;-78
2021/01/11 09:58:33;;;;;;;2.15;2.00;;;5.60;99.90;;;;;;4970556;28;20590;-79
2021/01/11 10:00:59;;;;;;;1.90;1.77;;;5.70;99.90;;;;;;4954451;29;20221;-78
2021/01/11 10:03:24;;;;;;;2.00;1.33;;;5.80;99.90;;;;;;4954139;28;20649;-79
2021/01/11 10:05:57;;;;;;;0.47;0.47;;;5.80;99.90;;;;;;4953555;29;20266;-78
2021/01/11 10:08:23;;;;;;;0.88;0.88;;;5.70;99.90;;;;;;4953903;29;20206;-77
2021/01/11 10:10:48;;;;;;;0.60;0.60;;;5.80;99.90;;;;;;4955231;29;20197;-80
2021/01/11 10:13:14;;;;;;;0.93;0.88;;;5.90;99.90;;;;;;4937530;29;20175;-81
2021/01/11 10:15:40;;;;;;;6.07;1.90;;;5.90;99.90;;;;;;4937804;29;20191;-81
2021/01/11 10:18:05;;;;;;;1.20;1.20;;;6.00;99.90;;;;;;4937813;29;20689;-80
2021/01/11 10:20:31;;;;;;;1.10;1.10;;;6.00;99.90;;;;;;4952452;29;20257;-80
2021/01/11 10:22:56;;;;;;;1.85;1.70;;;5.90;99.90;;;;;;4954491;29;20627;-80
2021/01/11 10:25:22;;;;;;;1.77;1.02;;;5.90;99.90;;;;;;4954227;29;20187;-80
2021/01/11 10:27:48;;;;;;;0.65;0.65;;;5.80;99.90;;;;;;4950259;28;20175;-79
2021/01/11 10:30:14;;;;;;;0.63;0.63;;;5.70;99.90;;;;;;4941524;28;20237;-81
2021/01/11 10:32:40;;;;;;;0.47;0.47;;;5.60;99.90;;;;;;4973854;28;20630;-81
2021/01/11 10:35:06;;;;;;;2.08;1.27;;;5.60;99.90;;;;;;4974076;28;20244;-81
2021/01/11 10:37:32;;;;;;;1.05;1.00;;;5.70;99.90;;;;;;4973880;28;20162;-80
2021/01/11 10:39:57;;;;;;;0.68;0.68;;;5.60;99.90;;;;;;4956538;28;20782;-81
2021/01/11 10:42:26;;;;;;;2.33;2.13;;;5.70;99.90;;;;;;4956549;28;20166;-83
2021/01/11 10:44:52;;;;;;;2.13;1.83;;;5.70;99.90;;;;;;4973820;28;20201;-83
2021/01/11 10:47:18;;;;;;;1.20;1.17;;;5.80;99.90;;;;;;4973116;28;20213;-76
2021/01/11 10:49:44;;;;;;;0.70;0.70;;;5.60;99.90;;;;;;4973359;28;20377;-78
2021/01/11 10:52:10;;;;;;;0.40;0.40;;;5.60;99.90;;;;;;4973637;28;20166;-77
2021/01/11 10:54:35;;;;;;;0.45;0.45;;;5.60;99.90;;;;;;4956499;28;20206;-81
2021/01/11 10:57:01;;;;;;;1.08;1.02;;;5.80;99.90;;;;;;4958190;28;21026;-79
2021/01/11 10:59:29;;;;;;;1.13;1.10;;;5.80;99.90;;;;;;4947749;28;20272;-79
2021/01/11 11:01:55;;;;;;;0.63;0.63;;;5.90;99.90;;;;;;4948466;28;20181;-75
2021/01/11 11:04:23;;;;;;;1.88;1.65;;;5.90;99.90;;;;;;4938144;28;20211;-75
2021/01/11 11:06:48;;;;;;;2.97;1.58;;;5.70;99.90;;;;;;4967342;28;20181;-75
2021/01/11 11:09:14;;;;;;;0.85;0.85;;;5.70;99.90;;;;;;4970363;28;20232;-78
2021/01/11 11:11:40;;;;;;;0.52;0.52;;;5.60;99.90;;;;;;4973229;28;20529;-82
2021/01/11 11:14:05;;;;;;;1.90;1.75;;;5.60;99.90;;;;;;4973543;28;20166;-82
2021/01/11 11:16:31;;;;;;;0.63;0.63;;;5.40;99.90;;;;;;4973096;28;20300;-80
2021/01/11 11:18:57;;;;;;;0.75;0.75;;;5.40;99.90;;;;;;4956478;28;20170;-80
2021/01/11 11:21:22;;;;;;;1.00;1.00;;;5.50;99.90;;;;;;4974073;28;20240;-75
2021/01/11 11:23:48;;;;;;;3.55;1.33;;;5.50;99.90;;;;;;4973286;28;20169;-77
2021/01/11 11:26:22;;;;;;;1.88;1.77;;;5.80;99.90;;;;;;4973255;28;20186;-79
2021/01/11 11:28:48;;;;;;;0.60;0.60;;;6.00;99.90;;;;;;4973337;28;20204;-80
2021/01/11 11:31:13;;;;;;;2.13;2.03;;;6.00;99.90;;;;;;4953036;29;20230;-82
2021/01/11 11:33:40;;;;;;;1.95;1.85;;;6.10;99.90;;;;;;4954404;29;20170;-81
2021/01/11 11:36:05;;;;;;;1.00;1.00;;;6.10;99.90;;;;;;4966982;28;20213;-77
2021/01/11 11:38:31;;;;;;;0.82;0.82;;;6.10;99.90;;;;;;4953714;29;20171;-80
2021/01/11 11:40:57;;;;;;;0.95;0.90;;;6.00;99.90;;;;;;4953729;29;20651;-78
2021/01/11 11:43:22;;;;;;;1.88;1.77;;;6.00;99.90;;;;;;4953581;29;20173;-78
2021/01/11 11:45:49;;;;;;;3.72;2.75;;;6.00;99.90;;;;;;4953425;29;20206;-75
2021/01/11 11:48:15;;;;;;;0.88;0.88;;;6.00;99.90;;;;;;4953708;29;20206;-77
2021/01/11 11:50:42;;;;;;;0.88;0.88;;;6.00;99.90;;;;;;4953816;29;20193;-76
2021/01/11 11:53:07;;;;;;;1.40;1.38;;;6.10;99.90;;;;;;4953318;29;20162;-76
2021/01/11 11:55:34;;;;;;;5.28;2.33;;;6.20;99.90;;;;;;4955036;28;20191;-76
2021/01/11 11:58:00;;;;;;;1.13;1.13;;;6.20;99.90;;;;;;4956497;29;20198;-75
2021/01/11 12:00:26;;;;;;;1.52;1.48;;;6.30;99.90;;;;;;4972614;28;20567;-77
2021/01/11 12:02:51;;;;;;;1.45;1.08;;;6.20;99.90;;;;;;4957221;29;20163;-76
2021/01/11 12:05:20;;;;;;;3.20;1.63;;;6.30;99.90;;;;;;4971449;28;20261;-76
2021/01/11 12:07:53;;;;;;;0.73;0.73;;;6.20;99.90;;;;;;4988597;28;20174;-78
2021/01/11 12:10:19;;;;;;;1.15;1.15;;;6.10;99.90;;;;;;4957026;29;20178;-75
2021/01/11 12:12:48;;;;;;;2.17;1.58;;;6.10;99.90;;;;;;4957391;29;20159;-77
2021/01/11 12:15:15;;;;;;;3.83;1.98;;;6.10;99.90;;;;;;4956793;29;20213;-76
2021/01/11 12:17:41;;;;;;;0.85;0.85;;;6.20;99.90;;;;;;4957350;29;20170;-76
2021/01/11 12:20:08;;;;;;;4.60;2.35;;;6.00;99.90;;;;;;4957104;29;20312;-76
2021/01/11 12:22:38;;;;;;;7.18;1.35;;;6.10;99.90;;;;;;4957512;29;20159;-77
2021/01/11 12:25:05;;;;;;;1.13;1.02;;;6.30;99.90;;;;;;4987668;28;20285;-76
2021/01/11 12:27:34;;;;;;;1.55;1.48;;;6.20;99.90;;;;;;4988125;28;20634;-76
2021/01/11 12:30:00;;;;;;;1.45;1.35;;;6.30;99.90;;;;;;4960022;28;20230;-77
2021/01/11 12:32:26;;;;;;;1.70;1.63;;;6.20;99.90;;;;;;4976703;28;20158;-77
2021/01/11 12:34:52;;;;;;;2.20;1.63;;;6.20;99.90;;;;;;4976089;28;20190;-79
2021/01/11 12:37:18;;;;;;;1.10;1.05;;;6.30;99.90;;;;;;4975080;28;20656;-76
2021/01/11 12:39:46;;;;;;;2.00;1.88;;;6.20;99.90;;;;;;4975881;28;20258;-76
2021/01/11 12:42:12;;;;;;;0.90;0.82;;;6.30;99.90;;;;;;4975950;28;20158;-76
2021/01/11 12:44:38;;;;;;;2.28;1.92;;;6.30;99.90;;;;;;4975709;28;20247;-76
2021/01/11 12:47:05;;;;;;;1.15;1.15;;;6.40;99.90;;;;;;4958146;28;20169;-75
2021/01/11 12:49:31;;;;;;;3.95;2.15;;;6.50;99.90;;;;;;4975931;28;20193;-77
2021/01/11 12:51:57;;;;;;;2.28;1.92;;;6.60;99.90;;;;;;4976176;28;20174;-78
2021/01/11 12:54:23;;;;;;;1.35;1.15;;;6.60;99.90;;;;;;4990883;28;20673;-78
2021/01/11 12:56:49;;;;;;;1.75;1.65;;;6.60;99.90;;;;;;4975540;28;20269;-75
2021/01/11 12:59:14;;;;;;;1.42;1.38;;;6.80;99.90;;;;;;4975841;28;20184;-75
2021/01/11 13:01:41;;;;;;;22.48;1.33;;;6.90;99.90;;;;;;4976116;28;20166;-75
2021/01/11 13:04:08;;;;;;;3.10;2.80;;;7.10;99.90;;;;;;4975780;28;20169;-77
2021/01/11 13:06:40;;;;;;;1.13;0.95;;;7.10;99.90;;;;;;4974131;28;20243;-76
2021/01/11 13:09:10;;;;;;;2.08;1.40;;;7.00;99.90;;;;;;4975649;28;20204;-75